createdAt,value
2022-11-12T00:03:00.396Z,12.00
2022-11-12T00:07:02.075Z,11.35
2022-11-12T00:11:05.285Z,9.38
2022-11-12T00:15:07.154Z,11.70
2022-11-12T00:19:08.706Z,9.95
2022-11-12T00:23:10.320Z,16.20
2022-11-12T00:27:12.117Z,17.67
2022-11-12T00:31:13.929Z,9.05
2022-11-12T00:35:15.412Z,10.07
2022-11-12T00:39:17.075Z,11.73
2022-11-12T00:43:18.902Z,11.48
2022-11-12T00:47:20.385Z,11.20
2022-11-12T00:51:22.115Z,9.15
2022-11-12T00:55:23.563Z,9.85
2022-11-12T00:59:24.963Z,8.77
2022-11-12T01:03:28.164Z,9.98
2022-11-12T01:07:29.774Z,8.30
2022-11-12T01:11:31.261Z,8.82
2022-11-12T01:15:32.846Z,9.95
2022-11-12T01:19:34.541Z,9.23
2022-11-12T01:23:37.903Z,9.52
2022-11-12T01:27:39.319Z,8.18
2022-11-12T01:31:41.404Z,8.10
2022-11-12T01:35:42.883Z,8.52
2022-11-12T01:39:44.401Z,7.50
2022-11-12T01:43:46.549Z,8.55
2022-11-12T01:47:50.137Z,9.27
2022-11-12T01:51:53.645Z,8.05
2022-11-12T01:55:56.160Z,8.57
2022-11-12T02:00:01.492Z,7.40
2022-11-12T02:04:02.995Z,8.25
2022-11-12T02:08:05.873Z,11.43
2022-11-12T02:12:07.600Z,8.52
2022-11-12T02:16:09.692Z,7.88
2022-11-12T02:20:12.852Z,8.38
2022-11-12T02:24:14.282Z,8.25
2022-11-12T02:28:16.833Z,8.00
2022-11-12T02:32:18.310Z,8.18
2022-11-12T02:36:20.137Z,8.40
2022-11-12T02:40:22.360Z,7.53
2022-11-12T02:44:24.311Z,6.00
2022-11-12T02:48:26.130Z,6.65
2022-11-12T02:52:27.867Z,8.02
2022-11-12T02:56:29.282Z,6.10
2022-11-12T03:00:30.933Z,5.60
2022-11-12T03:04:32.392Z,7.03
2022-11-12T03:08:34.373Z,8.98
2022-11-12T03:12:35.982Z,5.70
2022-11-12T03:16:37.417Z,5.07
2022-11-12T03:20:39.369Z,7.07
2022-11-12T03:24:41.087Z,6.80
2022-11-12T03:28:42.681Z,5.70
2022-11-12T03:32:44.157Z,5.72
2022-11-12T03:36:45.559Z,6.35
2022-11-12T03:40:47.017Z,6.85
2022-11-12T03:44:48.452Z,6.65
2022-11-12T03:48:49.870Z,7.65
2022-11-12T03:52:53.541Z,7.43
2022-11-12T03:56:55.043Z,6.28
2022-11-12T04:00:56.710Z,6.72
2022-11-12T04:05:16.930Z,6.53
2022-11-12T04:09:18.511Z,6.15
2022-11-12T04:13:29.144Z,5.88
2022-11-12T04:17:49.095Z,6.07
2022-11-12T04:21:56.943Z,6.40
2022-11-12T04:26:17.233Z,6.72
2022-11-12T04:30:19.535Z,6.97
2022-11-12T04:34:30.318Z,6.75
2022-11-12T04:38:31.807Z,6.43
2022-11-12T04:42:51.958Z,6.20
2022-11-12T04:46:53.632Z,5.28
2022-11-12T04:51:00.675Z,6.00
2022-11-12T04:55:02.342Z,7.07
2022-11-12T04:59:03.926Z,5.90
2022-11-12T05:03:05.357Z,6.32
2022-11-12T05:07:07.120Z,6.22
2022-11-12T05:11:12.656Z,6.55
2022-11-12T05:15:14.766Z,8.80
2022-11-12T05:19:16.750Z,9.05
2022-11-12T05:23:18.387Z,6.97
2022-11-12T05:27:21.164Z,6.40
2022-11-12T05:31:22.777Z,7.65
2022-11-12T05:35:25.859Z,6.57
2022-11-12T05:39:27.443Z,7.93
2022-11-12T05:43:29.061Z,7.82
2022-11-12T05:47:30.647Z,7.75
2022-11-12T05:51:32.331Z,8.90
2022-11-12T05:55:37.168Z,6.45
2022-11-12T05:59:39.873Z,9.52
2022-11-12T06:03:41.521Z,9.32
2022-11-12T06:07:43.055Z,7.93
2022-11-12T06:11:44.464Z,7.53
2022-11-12T06:15:46.006Z,7.97
2022-11-12T06:19:47.599Z,6.80
2022-11-12T06:23:52.045Z,6.75
2022-11-12T06:27:55.334Z,7.80
2022-11-12T06:31:57.033Z,12.85
2022-11-12T06:36:03.246Z,27.85
2022-11-12T06:40:05.495Z,20.67
2022-11-12T06:44:07.084Z,19.63
2022-11-12T06:48:08.666Z,26.55
2022-11-12T06:52:15.203Z,20.98
2022-11-12T06:56:19.436Z,20.58
2022-11-12T07:00:21.027Z,19.55
2022-11-12T07:04:24.209Z,18.70
2022-11-12T07:08:26.377Z,14.70
2022-11-12T07:12:29.106Z,8.00
2022-11-12T07:16:30.709Z,8.40
2022-11-12T07:20:32.372Z,7.22
2022-11-12T07:24:34.505Z,7.78
2022-11-12T07:28:36.003Z,8.30
2022-11-12T07:32:44.019Z,8.48
2022-11-12T07:36:48.884Z,7.95
2022-11-12T07:40:50.581Z,8.07
2022-11-12T07:44:54.428Z,7.25
2022-11-12T07:48:56.255Z,6.78
2022-11-12T07:53:00.839Z,7.47
2022-11-12T07:57:02.603Z,8.18
2022-11-12T08:01:34.736Z,8.57
2022-11-12T08:05:36.202Z,9.30
2022-11-12T08:09:37.698Z,9.23
2022-11-12T08:13:39.120Z,11.27
2022-11-12T08:17:40.754Z,12.05
2022-11-12T08:21:42.226Z,9.13
2022-11-12T08:25:43.715Z,9.15
2022-11-12T08:29:45.156Z,8.93
2022-11-12T08:33:48.117Z,8.85
2022-11-12T08:37:49.500Z,7.32
2022-11-12T08:41:50.973Z,6.22
2022-11-12T08:45:52.587Z,6.68
2022-11-12T08:49:54.168Z,7.10
2022-11-12T08:53:55.787Z,7.20
2022-11-12T08:58:02.161Z,6.00
2022-11-12T09:02:03.623Z,5.85
2022-11-12T09:06:06.256Z,7.35
2022-11-12T09:10:08.288Z,5.78
2022-11-12T09:14:09.843Z,7.28
2022-11-12T09:18:16.555Z,5.55
2022-11-12T09:22:18.143Z,5.93
2022-11-12T09:26:20.323Z,8.40
2022-11-12T09:30:22.533Z,7.22
2022-11-12T09:34:24.059Z,6.03
2022-11-12T09:38:26.118Z,5.43
2022-11-12T09:42:27.776Z,6.03
2022-11-12T09:46:47.948Z,7.03
2022-11-12T09:51:01.299Z,5.18
2022-11-12T09:55:09.095Z,4.95
2022-11-12T10:03:30.011Z,11.35
2022-11-12T10:07:43.624Z,9.60
2022-11-12T10:12:18.959Z,10.27
2022-11-12T10:16:43.323Z,8.88
2022-11-12T10:20:53.951Z,11.18
2022-11-12T10:24:55.768Z,18.13
2022-11-12T10:29:08.839Z,8.45
2022-11-12T10:33:16.514Z,9.82
2022-11-12T10:37:25.811Z,7.28
2022-11-12T10:41:31.280Z,8.50
2022-11-12T10:45:33.091Z,8.02
2022-11-12T10:49:34.682Z,5.88
2022-11-12T10:53:38.674Z,9.60
2022-11-12T10:57:40.144Z,6.32
2022-11-12T11:01:45.673Z,7.25
2022-11-12T11:06:01.021Z,6.70
2022-11-12T11:10:03.208Z,7.55
2022-11-12T11:14:34.937Z,6.22
2022-11-12T11:18:39.374Z,7.32
2022-11-12T11:22:42.887Z,6.80
2022-11-12T11:27:11.827Z,8.38
2022-11-12T11:31:23.569Z,6.90
2022-11-12T11:35:43.379Z,9.02
2022-11-12T11:40:10.129Z,7.55
2022-11-12T11:44:59.724Z,6.70
2022-11-12T11:49:34.219Z,7.00
2022-11-12T11:53:50.620Z,9.77
2022-11-12T11:58:13.669Z,8.25
2022-11-12T12:02:33.866Z,9.38
2022-11-12T12:06:53.754Z,7.20
2022-11-12T12:11:29.364Z,9.20
2022-11-12T12:15:47.448Z,14.35
2022-11-12T12:20:17.978Z,9.13
2022-11-12T12:24:27.122Z,8.25
2022-11-12T12:28:47.349Z,9.10
2022-11-12T12:33:28.436Z,8.95
2022-11-12T12:37:48.563Z,7.30
2022-11-12T12:42:00.336Z,8.23
2022-11-12T12:46:02.842Z,7.75
2022-11-12T12:50:13.242Z,9.93
2022-11-12T12:54:50.273Z,11.48
2022-11-12T12:58:51.889Z,8.60
2022-11-12T13:02:53.543Z,9.45
2022-11-12T13:06:55.227Z,13.32
2022-11-12T13:10:58.518Z,8.98
2022-11-12T13:15:18.648Z,7.85
2022-11-12T13:19:46.265Z,11.57
2022-11-12T13:28:10.431Z,9.07
2022-11-12T13:32:28.240Z,8.23
2022-11-12T13:36:30.516Z,7.75
2022-11-12T13:40:51.797Z,7.88
2022-11-12T13:44:56.194Z,9.13
2022-11-12T13:49:04.066Z,6.85
2022-11-12T13:57:27.270Z,7.68
2022-11-12T14:01:33.181Z,9.70
2022-11-12T14:05:35.647Z,14.63
2022-11-12T14:10:02.719Z,10.30
2022-11-12T14:14:52.390Z,10.57
2022-11-12T14:19:02.972Z,8.68
2022-11-12T14:23:11.725Z,13.07
2022-11-12T14:27:42.853Z,8.50
2022-11-12T14:31:44.776Z,7.05
2022-11-12T14:35:46.421Z,9.35
2022-11-12T14:39:47.925Z,7.40
2022-11-12T14:44:11.128Z,9.48
2022-11-12T14:48:14.670Z,10.82
2022-11-12T14:52:19.453Z,10.45
2022-11-12T14:56:42.382Z,9.50
2022-11-12T15:00:46.473Z,20.77
2022-11-12T15:04:52.824Z,14.60
2022-11-12T15:08:59.034Z,13.30
2022-11-12T15:13:06.871Z,8.60
2022-11-12T15:21:25.418Z,12.98
2022-11-12T15:25:29.962Z,10.57
2022-11-12T15:29:36.112Z,11.88
2022-11-12T15:33:37.805Z,14.57
2022-11-12T15:37:42.360Z,14.02
2022-11-12T15:41:43.836Z,10.20
2022-11-12T15:45:50.239Z,12.90
2022-11-12T15:49:53.804Z,11.98
2022-11-12T15:53:56.475Z,10.75
2022-11-12T15:57:58.296Z,11.95
2022-11-12T16:01:59.951Z,13.35
2022-11-12T16:06:07.110Z,12.90
2022-11-12T16:10:17.367Z,11.18
2022-11-12T16:14:24.461Z,15.73
2022-11-12T16:18:26.462Z,13.65
2022-11-12T16:22:28.721Z,11.40
2022-11-12T16:26:31.435Z,11.52
2022-11-12T16:30:33.910Z,11.38
2022-11-12T16:34:35.421Z,10.07
2022-11-12T16:38:37.361Z,13.70
2022-11-12T16:42:45.980Z,10.48
2022-11-12T16:46:47.480Z,12.85
2022-11-12T16:50:49.799Z,13.05
2022-11-12T16:54:51.279Z,10.88
2022-11-12T16:58:52.748Z,12.60
2022-11-12T17:02:54.651Z,13.02
2022-11-12T17:06:56.198Z,16.00
2022-11-12T17:10:57.691Z,15.93
2022-11-12T17:14:59.676Z,12.52
2022-11-12T17:19:04.126Z,17.70
2022-11-12T17:23:05.565Z,14.35
2022-11-12T17:27:07.344Z,15.13
2022-11-12T17:31:19.018Z,15.45
2022-11-12T17:35:20.477Z,12.75
2022-11-12T17:39:22.137Z,14.82
2022-11-12T17:43:23.966Z,19.35
2022-11-12T17:47:25.477Z,18.85
2022-11-12T17:51:27.933Z,16.92
2022-11-12T17:55:29.423Z,19.33
2022-11-12T17:59:30.844Z,22.95
2022-11-12T18:03:32.306Z,19.85
2022-11-12T18:07:34.035Z,31.42
2022-11-12T18:11:45.551Z,21.95
2022-11-12T18:15:47.102Z,19.58
2022-11-12T18:19:48.683Z,18.70
2022-11-12T18:23:50.681Z,18.88
2022-11-12T18:27:52.184Z,16.42
2022-11-12T18:31:54.843Z,20.02
2022-11-12T18:36:05.538Z,17.85
2022-11-12T18:40:07.834Z,19.38
2022-11-12T18:44:09.325Z,20.33
2022-11-12T18:48:11.379Z,16.63
2022-11-12T18:52:13.017Z,17.95
2022-11-12T18:56:17.518Z,20.48
2022-11-12T19:00:19.747Z,17.15
2022-11-12T19:04:21.410Z,16.55
2022-11-12T19:08:23.077Z,20.08
2022-11-12T19:12:25.205Z,17.98
2022-11-12T19:16:26.871Z,18.00
2022-11-12T19:20:30.446Z,21.63
2022-11-12T19:24:31.931Z,19.33
2022-11-12T19:28:35.062Z,21.08
2022-11-12T19:32:38.329Z,21.10
2022-11-12T19:36:41.235Z,19.27
2022-11-12T19:40:42.927Z,18.42
2022-11-12T19:44:44.520Z,18.75
2022-11-12T19:48:46.327Z,16.70
2022-11-12T19:52:47.862Z,17.42
2022-11-12T19:56:49.344Z,15.05
2022-11-12T20:00:50.784Z,19.63
2022-11-12T20:04:54.057Z,17.98
2022-11-12T20:08:58.525Z,21.40
2022-11-12T20:13:01.785Z,15.52
2022-11-12T20:17:03.383Z,16.45
2022-11-12T20:21:05.598Z,19.33
2022-11-12T20:25:07.444Z,22.15
2022-11-12T20:29:09.149Z,17.58
2022-11-12T20:33:12.994Z,13.63
2022-11-12T20:37:14.608Z,14.30
2022-11-12T20:41:26.216Z,20.63
2022-11-12T20:45:27.697Z,26.52
2022-11-12T20:49:29.328Z,17.35
2022-11-12T20:53:31.829Z,17.48
2022-11-12T20:57:33.333Z,18.30
2022-11-12T21:01:34.836Z,16.90
2022-11-12T21:05:36.677Z,18.08
2022-11-12T21:09:38.229Z,20.77
2022-11-12T21:13:39.915Z,17.10
2022-11-12T21:17:41.297Z,15.70
2022-11-12T21:21:42.897Z,13.45
2022-11-12T21:25:44.418Z,15.65
2022-11-12T21:29:45.982Z,13.15
2022-11-12T21:33:55.753Z,14.43
2022-11-12T21:37:57.370Z,16.10
2022-11-12T21:41:58.872Z,15.88
2022-11-12T21:46:01.313Z,13.68
2022-11-12T21:50:02.917Z,13.38
2022-11-12T21:54:06.631Z,15.27
2022-11-12T21:58:08.096Z,14.65
2022-11-12T22:02:12.848Z,13.88
2022-11-12T22:06:14.639Z,13.30
2022-11-12T22:10:18.301Z,16.60
2022-11-12T22:14:19.786Z,13.55
2022-11-12T22:18:21.443Z,16.10
2022-11-12T22:22:22.876Z,14.55
2022-11-12T22:26:29.053Z,12.98
2022-11-12T22:30:30.473Z,14.88
2022-11-12T22:34:31.905Z,13.88
2022-11-12T22:38:38.791Z,14.02
2022-11-12T22:42:40.270Z,16.53
2022-11-12T22:46:41.905Z,13.05
2022-11-12T22:50:43.526Z,15.65
2022-11-12T22:54:45.149Z,16.80
2022-11-12T22:58:47.110Z,12.07
2022-11-12T23:02:48.763Z,14.50
2022-11-12T23:06:50.374Z,16.90
2022-11-12T23:10:52.596Z,17.38
2022-11-12T23:14:54.210Z,16.20
2022-11-12T23:18:55.762Z,14.25
2022-11-12T23:22:57.155Z,16.23
2022-11-12T23:26:59.080Z,13.40
2022-11-12T23:31:01.418Z,15.20
2022-11-12T23:35:02.828Z,15.45
2022-11-12T23:39:04.720Z,14.10
2022-11-12T23:43:06.245Z,13.52
2022-11-12T23:47:07.882Z,14.90
2022-11-12T23:51:20.441Z,16.70
2022-11-12T23:55:22.070Z,14.73
2022-11-12T23:59:23.909Z,13.20
